createdAt,value
2017-07-09T00:00:58.135Z,24.85
2017-07-09T00:01:58.160Z,24.74
2017-07-09T00:02:57.879Z,24.65
2017-07-09T00:03:57.893Z,24.81
2017-07-09T00:04:58.256Z,24.74
2017-07-09T00:05:57.949Z,24.81
2017-07-09T00:06:57.639Z,24.7
2017-07-09T00:07:58.430Z,24.69
2017-07-09T00:08:58.027Z,24.74
2017-07-09T00:09:58.052Z,24.73
2017-07-09T00:10:58.410Z,24.69
2017-07-09T00:11:58.109Z,24.6
2017-07-09T00:12:58.132Z,24.63
2017-07-09T00:13:58.491Z,24.66
2017-07-09T00:14:58.190Z,24.68
2017-07-09T00:15:58.543Z,24.6
2017-07-09T00:16:58.247Z,24.65
2017-07-09T00:17:58.603Z,24.61
2017-07-09T00:18:58.503Z,24.58
2017-07-09T00:19:58.653Z,24.65
2017-07-09T00:20:58.680Z,24.57
2017-07-09T00:21:58.762Z,24.54
2017-07-09T00:22:58.405Z,24.55
2017-07-09T00:23:58.429Z,24.57
2017-07-09T00:24:58.462Z,24.55
2017-07-09T00:25:58.491Z,24.51
2017-07-09T00:26:58.844Z,24.48
2017-07-09T00:27:58.875Z,24.53
2017-07-09T00:28:58.900Z,24.47
2017-07-09T00:29:58.923Z,24.53
2017-07-09T00:30:58.625Z,24.48
2017-07-09T00:31:58.984Z,24.53
2017-07-09T00:32:59.006Z,24.45
2017-07-09T00:33:59.028Z,24.43
2017-07-09T00:34:59.064Z,24.38
2017-07-09T00:35:59.092Z,24.4
2017-07-09T00:36:58.789Z,24.45
2017-07-09T00:37:59.145Z,24.48
2017-07-09T00:38:59.170Z,24.48
2017-07-09T00:39:59.195Z,24.45
2017-07-09T00:40:58.897Z,24.43
2017-07-09T00:41:59.012Z,24.42
2017-07-09T00:42:59.045Z,24.39
2017-07-09T00:43:59.299Z,24.36
2017-07-09T00:44:59.333Z,24.35
2017-07-09T00:45:59.358Z,24.38
2017-07-09T00:46:59.437Z,24.39
2017-07-09T00:47:59.159Z,24.35
2017-07-09T00:48:59.156Z,24.3
2017-07-09T00:49:59.473Z,24.28
2017-07-09T00:50:58.860Z,24.3
2017-07-09T00:51:59.196Z,24.28
2017-07-09T00:52:59.223Z,24.24
2017-07-09T00:53:59.579Z,24.26
2017-07-09T00:54:59.602Z,24.23
2017-07-09T00:55:59.303Z,24.23
2017-07-09T00:56:59.660Z,24.21
2017-07-09T00:57:59.684Z,24.28
2017-07-09T00:58:59.707Z,24.2
2017-07-09T00:59:59.406Z,24.18
2017-07-09T01:00:59.436Z,24.26
2017-07-09T01:01:59.791Z,24.17
2017-07-09T01:02:59.815Z,24.14
2017-07-09T01:03:59.846Z,24.17
2017-07-09T01:04:59.547Z,24.17
2017-07-09T01:05:59.569Z,24.17
2017-07-09T01:06:59.595Z,24.08
2017-07-09T01:07:59.954Z,24.1
2017-07-09T01:08:59.653Z,24.11
2017-07-09T01:10:00.007Z,24.08
2017-07-09T01:10:59.377Z,24.1
2017-07-09T01:11:59.734Z,24.13
2017-07-09T01:13:00.086Z,24.1
2017-07-09T01:14:00.118Z,24.03
2017-07-09T01:14:59.919Z,24.13
2017-07-09T01:15:59.925Z,24.06
2017-07-09T01:17:00.185Z,24.02
2017-07-09T01:18:00.220Z,24.01
2017-07-09T01:18:59.953Z,24.02
2017-07-09T01:20:00.278Z,23.96
2017-07-09T01:21:00.368Z,24.02
2017-07-09T01:22:00.322Z,24.01
2017-07-09T01:23:00.098Z,24.01
2017-07-09T01:24:00.098Z,23.98
2017-07-09T01:25:00.095Z,23.96
2017-07-09T01:26:00.440Z,23.92
2017-07-09T01:27:00.457Z,23.99
2017-07-09T01:28:00.168Z,23.96
2017-07-09T01:29:00.515Z,23.96
2017-07-09T01:30:00.538Z,23.93
2017-07-09T01:30:59.961Z,23.96
2017-07-09T01:32:00.601Z,23.91
2017-07-09T01:33:00.292Z,23.86
2017-07-09T01:34:00.316Z,23.87
2017-07-09T01:35:00.381Z,23.86
2017-07-09T01:36:00.149Z,23.84
2017-07-09T01:37:00.394Z,23.91
2017-07-09T01:38:00.823Z,23.87
2017-07-09T01:39:00.804Z,23.84
2017-07-09T01:40:00.915Z,23.88
2017-07-09T01:41:00.954Z,23.83
2017-07-09T01:42:00.882Z,23.84
2017-07-09T01:43:00.997Z,23.76
2017-07-09T01:44:00.908Z,23.81
2017-07-09T01:45:00.936Z,23.78
2017-07-09T01:46:00.632Z,23.74
2017-07-09T01:47:00.667Z,23.8
2017-07-09T01:48:00.695Z,23.74
2017-07-09T01:49:00.400Z,23.73
2017-07-09T01:50:00.783Z,23.77
2017-07-09T01:51:00.769Z,23.77
2017-07-09T01:52:01.108Z,23.83
2017-07-09T01:53:00.477Z,23.74
2017-07-09T01:54:00.812Z,23.77
2017-07-09T01:55:00.839Z,23.69
2017-07-09T01:56:01.191Z,23.73
2017-07-09T01:57:01.209Z,23.77
2017-07-09T01:58:01.245Z,23.71
2017-07-09T01:59:01.264Z,23.66
2017-07-09T02:00:00.644Z,23.66
2017-07-09T02:01:00.667Z,23.74
2017-07-09T02:02:01.345Z,23.71
2017-07-09T02:03:00.990Z,23.63
2017-07-09T02:04:01.395Z,23.68
2017-07-09T02:05:01.423Z,23.69
2017-07-09T02:06:01.124Z,23.69
2017-07-09T02:07:01.148Z,23.62
2017-07-09T02:08:01.197Z,23.73
2017-07-09T02:09:01.521Z,23.73
2017-07-09T02:10:00.906Z,23.73
2017-07-09T02:11:01.687Z,23.62
2017-07-09T02:12:01.711Z,23.66
2017-07-09T02:13:01.711Z,23.66
2017-07-09T02:14:01.660Z,23.62
2017-07-09T02:15:01.361Z,23.63
2017-07-09T02:16:01.388Z,23.65
2017-07-09T02:17:01.850Z,23.62
2017-07-09T02:18:01.848Z,23.59
2017-07-09T02:19:01.465Z,23.63
2017-07-09T02:20:01.872Z,23.59
2017-07-09T02:21:01.636Z,23.54
2017-07-09T02:22:01.544Z,23.59
2017-07-09T02:23:01.993Z,23.59
2017-07-09T02:24:01.638Z,23.59
2017-07-09T02:25:01.623Z,23.56
2017-07-09T02:26:01.327Z,23.55
2017-07-09T02:27:01.996Z,23.54
2017-07-09T02:28:02.020Z,23.47
2017-07-09T02:29:01.803Z,23.55
2017-07-09T02:30:01.791Z,23.48
2017-07-09T02:31:01.464Z,23.44
2017-07-09T02:32:02.225Z,23.48
2017-07-09T02:33:02.288Z,23.47
2017-07-09T02:34:01.896Z,23.48
2017-07-09T02:35:01.958Z,23.5
2017-07-09T02:36:01.981Z,23.43
2017-07-09T02:37:01.938Z,23.47
2017-07-09T02:38:01.960Z,23.41
2017-07-09T02:39:01.985Z,23.4
2017-07-09T02:40:02.021Z,23.4
2017-07-09T02:41:02.043Z,23.39
2017-07-09T02:42:02.066Z,23.39
2017-07-09T02:43:02.097Z,23.34
2017-07-09T02:44:02.154Z,23.37
2017-07-09T02:45:02.159Z,23.41
2017-07-09T02:46:02.489Z,23.39
2017-07-09T02:47:02.212Z,23.39
2017-07-09T02:48:02.222Z,23.39
2017-07-09T02:49:02.249Z,23.37
2017-07-09T02:50:02.279Z,23.43
2017-07-09T02:51:02.625Z,23.27
2017-07-09T02:52:02.005Z,23.41
2017-07-09T02:53:02.676Z,23.4
2017-07-09T02:54:02.704Z,23.39
2017-07-09T02:55:02.406Z,23.31
2017-07-09T02:56:02.116Z,23.34
2017-07-09T02:57:02.462Z,23.25
2017-07-09T02:58:02.162Z,23.25
2017-07-09T02:59:02.510Z,23.21
2017-07-09T03:00:02.866Z,23.36
2017-07-09T03:01:02.567Z,23.27
2017-07-09T03:02:02.909Z,23.24
2017-07-09T03:03:02.293Z,23.25
2017-07-09T03:04:02.642Z,23.23
2017-07-09T03:05:02.993Z,23.27
2017-07-09T03:06:02.372Z,23.28
2017-07-09T03:07:02.398Z,23.25
2017-07-09T03:08:03.069Z,23.27
2017-07-09T03:09:02.769Z,23.24
2017-07-09T03:10:03.120Z,23.27
2017-07-09T03:11:03.145Z,23.21
2017-07-09T03:12:02.849Z,23.24
2017-07-09T03:13:03.196Z,23.2
2017-07-09T03:14:03.228Z,23.24
2017-07-09T03:15:02.605Z,23.17
2017-07-09T03:16:03.275Z,23.23
2017-07-09T03:17:03.308Z,23.2
2017-07-09T03:18:03.007Z,23.1
2017-07-09T03:19:02.707Z,23.2
2017-07-09T03:20:03.067Z,23.13
2017-07-09T03:21:03.409Z,23.12
2017-07-09T03:22:03.129Z,23.12
2017-07-09T03:23:03.455Z,23.1
2017-07-09T03:24:02.855Z,23.2
2017-07-09T03:25:03.184Z,23.12
2017-07-09T03:26:02.912Z,23.17
2017-07-09T03:27:03.565Z,23.09
2017-07-09T03:28:03.586Z,23.1
2017-07-09T03:29:03.299Z,23.1
2017-07-09T03:30:03.322Z,23.08
2017-07-09T03:31:03.665Z,23.03
2017-07-09T03:32:03.043Z,23.18
2017-07-09T03:33:03.719Z,23.1
2017-07-09T03:34:04.050Z,23.03
2017-07-09T03:35:03.768Z,23.08
2017-07-09T03:36:03.795Z,23.08
2017-07-09T03:37:03.568Z,23.08
2017-07-09T03:38:03.898Z,23.1
2017-07-09T03:39:03.544Z,23.08
2017-07-09T03:40:03.906Z,23.03
2017-07-09T03:41:03.925Z,23.03
2017-07-09T03:42:03.621Z,23.05
2017-07-09T03:43:03.649Z,23.02
2017-07-09T03:44:03.995Z,22.98
2017-07-09T03:45:04.021Z,23.08
2017-07-09T03:46:03.724Z,23.05
2017-07-09T03:47:03.479Z,23.02
2017-07-09T03:48:04.100Z,23.03
2017-07-09T03:49:04.129Z,22.99
2017-07-09T03:50:03.829Z,23.03
2017-07-09T03:51:03.858Z,22.99
2017-07-09T03:52:03.878Z,22.96
2017-07-09T03:53:03.909Z,22.98
2017-07-09T03:54:04.267Z,22.96
2017-07-09T03:55:03.964Z,22.93
2017-07-09T03:56:03.997Z,23.05
2017-07-09T03:57:04.017Z,23.02
2017-07-09T03:58:04.034Z,23.02
2017-07-09T03:59:04.060Z,23.02
2017-07-09T04:00:04.092Z,22.99
2017-07-09T04:01:04.113Z,22.98
2017-07-09T04:02:04.463Z,22.96
2017-07-09T04:03:04.164Z,22.96
2017-07-09T04:04:03.866Z,23.02
2017-07-09T04:05:04.537Z,23.02
2017-07-09T04:06:04.241Z,22.94
2017-07-09T04:07:03.944Z,23.02
2017-07-09T04:08:04.296Z,23.02
2017-07-09T04:09:04.318Z,23.03
2017-07-09T04:10:04.668Z,22.99
2017-07-09T04:11:04.696Z,22.99
2017-07-09T04:12:04.716Z,23
2017-07-09T04:13:04.420Z,22.99
2017-07-09T04:14:04.128Z,23.02
2017-07-09T04:15:04.151Z,23.03
2017-07-09T04:16:04.508Z,22.98
2017-07-09T04:17:04.531Z,22.99
2017-07-09T04:18:04.552Z,23
2017-07-09T04:19:04.899Z,22.99
2017-07-09T04:20:04.923Z,22.99
2017-07-09T04:21:04.630Z,22.99
2017-07-09T04:22:04.350Z,22.94
2017-07-09T04:23:04.994Z,22.98
2017-07-09T04:24:04.382Z,22.98
2017-07-09T04:25:04.411Z,22.98
2017-07-09T04:26:05.083Z,22.98
2017-07-09T04:27:04.779Z,22.98
2017-07-09T04:28:05.141Z,22.94
2017-07-09T04:29:05.157Z,22.99
2017-07-09T04:30:04.539Z,22.88
2017-07-09T04:31:04.889Z,22.98
2017-07-09T04:32:04.915Z,22.98
2017-07-09T04:33:04.934Z,22.99
2017-07-09T04:34:04.959Z,22.96
2017-07-09T04:35:04.992Z,22.94
2017-07-09T04:36:05.024Z,22.96
2017-07-09T04:37:05.036Z,22.96
2017-07-09T04:38:04.755Z,22.94
2017-07-09T04:39:04.780Z,22.96
2017-07-09T04:40:04.790Z,22.94
2017-07-09T04:41:05.466Z,22.96
2017-07-09T04:42:04.862Z,22.93
2017-07-09T04:43:05.189Z,22.87
2017-07-09T04:44:05.234Z,22.88
2017-07-09T04:45:05.251Z,22.88
2017-07-09T04:46:05.611Z,22.93
2017-07-09T04:47:05.292Z,22.93
2017-07-09T04:48:05.316Z,22.88
2017-07-09T04:49:05.665Z,22.87
2017-07-09T04:50:05.052Z,22.9
2017-07-09T04:51:05.721Z,22.88
2017-07-09T04:52:05.434Z,22.88
2017-07-09T04:53:05.447Z,22.9
2017-07-09T04:54:05.483Z,22.93
2017-07-09T04:55:05.177Z,22.96
2017-07-09T04:56:05.541Z,22.91
2017-07-09T04:57:05.877Z,22.93
2017-07-09T04:58:05.585Z,22.98
2017-07-09T04:59:05.291Z,22.96
2017-07-09T05:00:06.058Z,22.93
2017-07-09T05:01:05.646Z,22.94
2017-07-09T05:02:05.736Z,22.96
2017-07-09T05:03:05.699Z,22.98
2017-07-09T05:04:05.749Z,23
2017-07-09T05:05:06.198Z,23
2017-07-09T05:06:06.206Z,23.02
2017-07-09T05:07:05.485Z,22.99
2017-07-09T05:08:05.508Z,23
2017-07-09T05:09:05.911Z,22.99
2017-07-09T05:10:06.202Z,23.02
2017-07-09T05:11:06.230Z,23.03
2017-07-09T05:12:05.659Z,23.02
2017-07-09T05:13:05.959Z,23.02
2017-07-09T05:14:05.666Z,23.06
2017-07-09T05:15:05.687Z,23.09
2017-07-09T05:16:06.030Z,23.1
2017-07-09T05:17:06.062Z,23.09
2017-07-09T05:18:06.086Z,23.08
2017-07-09T05:19:05.795Z,23.08
2017-07-09T05:20:05.827Z,23.08
2017-07-09T05:21:06.492Z,23.13
2017-07-09T05:22:06.193Z,23.09
2017-07-09T05:23:06.212Z,23.12
2017-07-09T05:24:06.015Z,23.09
2017-07-09T05:25:06.587Z,23.08
2017-07-09T05:26:06.290Z,23.1
2017-07-09T05:27:06.318Z,23.12
2017-07-09T05:28:06.346Z,23.08
2017-07-09T05:29:06.374Z,23.13
2017-07-09T05:30:06.071Z,23.2
2017-07-09T05:31:06.099Z,23.1
2017-07-09T05:32:06.123Z,23.06
2017-07-09T05:33:06.569Z,23.12
2017-07-09T05:34:07.047Z,23.06
2017-07-09T05:35:06.727Z,23.1
2017-07-09T05:36:06.227Z,23.12
2017-07-09T05:37:06.585Z,23.1
2017-07-09T05:38:06.276Z,23.06
2017-07-09T05:39:06.304Z,23.15
2017-07-09T05:40:06.793Z,23.2
2017-07-09T05:41:06.830Z,23.23
2017-07-09T05:42:06.714Z,23.23
2017-07-09T05:43:06.848Z,23.25
2017-07-09T05:44:06.848Z,23.24
2017-07-09T05:45:07.181Z,23.2
2017-07-09T05:46:06.895Z,23.27
2017-07-09T05:47:07.168Z,23.24
2017-07-09T05:48:07.216Z,23.28
2017-07-09T05:49:06.902Z,23.34
2017-07-09T05:50:06.701Z,23.34
2017-07-09T05:51:06.931Z,23.37
2017-07-09T05:52:06.838Z,23.31
2017-07-09T05:53:07.406Z,23.37
2017-07-09T05:54:07.013Z,23.39
2017-07-09T05:55:06.846Z,23.44
2017-07-09T05:56:07.063Z,23.4
2017-07-09T05:57:07.413Z,23.44
2017-07-09T05:58:07.433Z,23.47
2017-07-09T05:59:07.459Z,23.47
2017-07-09T06:00:06.902Z,23.46
2017-07-09T06:01:07.239Z,23.46
2017-07-09T06:02:06.907Z,23.46
2017-07-09T06:03:07.251Z,23.51
2017-07-09T06:04:07.589Z,23.46
2017-07-09T06:05:07.287Z,23.59
2017-07-09T06:06:06.997Z,23.51
2017-07-09T06:07:07.672Z,23.54
2017-07-09T06:08:07.699Z,23.54
2017-07-09T06:09:07.718Z,23.54
2017-07-09T06:10:07.757Z,23.56
2017-07-09T06:11:07.778Z,23.59
2017-07-09T06:12:07.216Z,23.55
2017-07-09T06:13:07.176Z,23.54
2017-07-09T06:14:07.539Z,23.51
2017-07-09T06:15:07.884Z,23.56
2017-07-09T06:16:07.577Z,23.59
2017-07-09T06:17:07.280Z,23.55
2017-07-09T06:18:07.627Z,23.58
2017-07-09T06:19:07.659Z,23.55
2017-07-09T06:20:07.356Z,23.59
2017-07-09T06:21:08.162Z,23.61
2017-07-09T06:22:08.188Z,23.66
2017-07-09T06:23:07.867Z,23.61
2017-07-09T06:24:07.551Z,23.65
2017-07-09T06:25:08.163Z,23.65
2017-07-09T06:26:07.738Z,23.69
2017-07-09T06:27:08.182Z,23.69
2017-07-09T06:28:07.791Z,23.73
2017-07-09T06:29:08.239Z,23.68
2017-07-09T06:30:08.007Z,23.74
2017-07-09T06:31:07.967Z,23.68
2017-07-09T06:32:08.309Z,23.76
2017-07-09T06:33:08.340Z,23.8
2017-07-09T06:34:08.039Z,23.81
2017-07-09T06:35:08.077Z,23.86
2017-07-09T06:36:08.094Z,23.87
2017-07-09T06:37:08.437Z,23.87
2017-07-09T06:38:08.200Z,23.96
2017-07-09T06:39:08.499Z,23.96
2017-07-09T06:40:08.198Z,23.93
2017-07-09T06:41:08.545Z,23.96
2017-07-09T06:42:08.246Z,23.96
2017-07-09T06:43:08.595Z,24.05
2017-07-09T06:44:08.298Z,24.03
2017-07-09T06:45:08.326Z,24.13
2017-07-09T06:46:08.680Z,24.05
2017-07-09T06:47:08.618Z,24.14
2017-07-09T06:48:08.404Z,24.21
2017-07-09T06:49:08.435Z,24.26
2017-07-09T06:50:08.458Z,24.28
2017-07-09T06:51:08.158Z,24.4
2017-07-09T06:52:08.535Z,24.36
2017-07-09T06:53:08.854Z,24.43
2017-07-09T06:54:08.881Z,24.43
2017-07-09T06:55:08.919Z,24.45
2017-07-09T06:56:08.615Z,24.42
2017-07-09T06:57:08.637Z,24.47
2017-07-09T06:58:08.666Z,24.5
2017-07-09T06:59:08.754Z,24.51
2017-07-09T07:00:08.717Z,24.6
2017-07-09T07:01:08.751Z,24.55
2017-07-09T07:02:09.090Z,24.55
2017-07-09T07:03:08.795Z,24.58
2017-07-09T07:04:09.218Z,24.63
2017-07-09T07:05:09.180Z,24.6
2017-07-09T07:06:09.203Z,24.68
2017-07-09T07:07:08.586Z,24.61
2017-07-09T07:08:08.925Z,24.63
2017-07-09T07:09:08.636Z,24.63
2017-07-09T07:10:08.982Z,24.73
2017-07-09T07:11:09.333Z,24.73
2017-07-09T07:12:09.036Z,24.77
2017-07-09T07:13:09.395Z,24.84
2017-07-09T07:14:08.762Z,24.76
2017-07-09T07:15:08.788Z,24.89
2017-07-09T07:16:09.461Z,24.81
2017-07-09T07:17:09.554Z,24.81
2017-07-09T07:18:09.198Z,24.84
2017-07-09T07:19:09.218Z,24.85
2017-07-09T07:20:09.246Z,24.88
2017-07-09T07:21:09.280Z,24.85
2017-07-09T07:22:09.295Z,24.86
2017-07-09T07:23:09.638Z,24.93
2017-07-09T07:24:09.352Z,24.98
2017-07-09T07:25:09.376Z,24.95
2017-07-09T07:26:09.725Z,24.99
2017-07-09T07:27:09.431Z,25.01
2017-07-09T07:28:09.455Z,25.11
2017-07-09T07:29:09.512Z,25.18
2017-07-09T07:30:09.508Z,25.1
2017-07-09T07:31:09.540Z,25.22
2017-07-09T07:32:09.560Z,25.26
2017-07-09T07:33:09.587Z,25.38
2017-07-09T07:34:09.938Z,25.32
2017-07-09T07:35:09.640Z,25.38
2017-07-09T07:36:09.667Z,25.4
2017-07-09T07:37:09.695Z,25.59
2017-07-09T07:38:09.401Z,25.58
2017-07-09T07:39:09.757Z,25.63
2017-07-09T07:40:10.098Z,25.59
2017-07-09T07:41:09.570Z,25.66
2017-07-09T07:42:10.244Z,25.63
2017-07-09T07:43:10.176Z,25.73
2017-07-09T07:44:09.558Z,25.72
2017-07-09T07:45:10.236Z,25.81
2017-07-09T07:46:10.265Z,25.83
2017-07-09T07:47:10.310Z,25.95
2017-07-09T07:48:10.312Z,25.96
2017-07-09T07:49:09.695Z,26.02
2017-07-09T07:50:10.422Z,26.15
2017-07-09T07:51:10.072Z,26.07
2017-07-09T07:52:10.416Z,26.22
2017-07-09T07:53:10.450Z,26.21
2017-07-09T07:54:10.151Z,26.09
2017-07-09T07:55:10.575Z,26.23
2017-07-09T07:56:10.205Z,26.26
2017-07-09T07:57:10.560Z,26.29
2017-07-09T07:58:10.262Z,26.36
2017-07-09T07:59:10.607Z,26.33
2017-07-09T08:00:10.313Z,26.4
2017-07-09T08:01:10.345Z,26.48
2017-07-09T08:02:10.365Z,26.55
2017-07-09T08:03:10.722Z,26.53
2017-07-09T08:04:10.744Z,26.51
2017-07-09T08:05:10.454Z,26.63
2017-07-09T08:06:10.799Z,26.66
2017-07-09T08:07:10.512Z,26.63
2017-07-09T08:08:10.529Z,26.6
2017-07-09T08:09:10.567Z,26.78
2017-07-09T08:10:10.929Z,26.8
2017-07-09T08:11:10.616Z,26.78
2017-07-09T08:12:10.645Z,26.74
2017-07-09T08:13:10.710Z,26.88
2017-07-09T08:14:11.012Z,26.99
2017-07-09T08:15:11.043Z,26.95
2017-07-09T08:16:11.085Z,27.03
2017-07-09T08:17:11.100Z,26.99
2017-07-09T08:18:10.575Z,26.97
2017-07-09T08:19:11.211Z,27.08
2017-07-09T08:20:11.248Z,27.21
2017-07-09T08:21:10.891Z,27.2
2017-07-09T08:22:11.238Z,27.27
2017-07-09T08:23:10.943Z,27.26
2017-07-09T08:24:10.967Z,27.36
2017-07-09T08:25:11.324Z,27.33
2017-07-09T08:26:11.347Z,27.35
2017-07-09T08:27:11.382Z,27.49
2017-07-09T08:28:11.406Z,27.52
2017-07-09T08:29:11.434Z,27.44
2017-07-09T08:30:11.143Z,27.58
2017-07-09T08:31:11.491Z,27.63
2017-07-09T08:32:11.197Z,27.63
2017-07-09T08:33:11.226Z,27.67
2017-07-09T08:34:11.254Z,27.68
2017-07-09T08:35:11.288Z,27.68
2017-07-09T08:36:11.722Z,27.82
2017-07-09T08:37:11.521Z,27.78
2017-07-09T08:38:11.043Z,27.85
2017-07-09T08:39:11.712Z,27.92
2017-07-09T08:40:11.422Z,27.9
2017-07-09T08:41:11.448Z,27.87
2017-07-09T08:42:11.810Z,28.01
2017-07-09T08:43:11.827Z,27.98
2017-07-09T08:44:11.530Z,27.96
2017-07-09T08:45:11.890Z,28.04
2017-07-09T08:46:11.917Z,28.01
2017-07-09T08:47:11.747Z,28.1
2017-07-09T08:48:11.973Z,28.1
2017-07-09T08:49:12.120Z,28.04
2017-07-09T08:50:12.115Z,28.02
2017-07-09T08:51:11.821Z,28
2017-07-09T08:52:12.205Z,28.1
2017-07-09T08:53:11.915Z,28.15
2017-07-09T08:54:11.949Z,28.15
2017-07-09T08:55:11.948Z,28.26
2017-07-09T08:56:11.877Z,28.25
2017-07-09T08:57:12.230Z,28.37
2017-07-09T08:58:11.928Z,28.38
2017-07-09T08:59:11.959Z,28.42
2017-07-09T09:00:11.983Z,28.52
2017-07-09T09:01:12.013Z,28.62
2017-07-09T09:02:12.048Z,28.62
2017-07-09T09:03:12.090Z,28.66
2017-07-09T09:04:12.426Z,28.69
2017-07-09T09:05:12.126Z,28.76
2017-07-09T09:06:12.166Z,28.84
2017-07-09T09:07:11.867Z,28.86
2017-07-09T09:08:12.546Z,28.94
2017-07-09T09:09:12.569Z,28.97
2017-07-09T09:10:12.273Z,29.01
2017-07-09T09:11:12.623Z,29.04
2017-07-09T09:12:12.331Z,29.05
2017-07-09T09:13:12.682Z,29.2
2017-07-09T09:14:12.733Z,29.22
2017-07-09T09:15:12.854Z,29.2
2017-07-09T09:16:12.781Z,29.29
2017-07-09T09:17:12.154Z,29.31
2017-07-09T09:18:12.608Z,29.38
2017-07-09T09:19:12.986Z,29.39
2017-07-09T09:20:12.965Z,29.5
2017-07-09T09:21:13.005Z,29.51
2017-07-09T09:22:13.070Z,29.53
2017-07-09T09:23:12.779Z,29.6
2017-07-09T09:24:12.808Z,29.66
2017-07-09T09:25:12.816Z,29.68
2017-07-09T09:26:13.156Z,29.69
2017-07-09T09:27:12.975Z,29.76
2017-07-09T09:28:12.988Z,29.81
2017-07-09T09:29:13.298Z,30
2017-07-09T09:30:13.356Z,29.95
2017-07-09T09:31:13.057Z,30.09
2017-07-09T09:32:12.727Z,30.16
2017-07-09T09:33:13.449Z,30.13
2017-07-09T09:34:13.385Z,30.15
2017-07-09T09:35:13.393Z,30.16
2017-07-09T09:36:13.443Z,30.34
2017-07-09T09:37:12.874Z,30.35
2017-07-09T09:38:13.156Z,30.47
2017-07-09T09:39:13.513Z,30.59
2017-07-09T09:40:13.482Z,30.54
2017-07-09T09:41:13.508Z,30.65
2017-07-09T09:42:13.207Z,30.65
2017-07-09T09:43:13.562Z,30.72
2017-07-09T09:44:13.269Z,30.75
2017-07-09T09:45:13.622Z,30.83
2017-07-09T09:46:13.008Z,30.85
2017-07-09T09:47:13.391Z,30.85
2017-07-09T09:48:13.712Z,31
2017-07-09T09:49:13.419Z,31.02
2017-07-09T09:50:13.452Z,31
2017-07-09T09:51:13.803Z,31.07
2017-07-09T09:52:13.552Z,31.18
2017-07-09T09:53:13.861Z,31.25
2017-07-09T09:54:13.892Z,31.28
2017-07-09T09:55:13.926Z,31.36
2017-07-09T09:56:13.301Z,31.4
2017-07-09T09:57:13.976Z,31.43
2017-07-09T09:58:14.007Z,31.54
2017-07-09T09:59:14.036Z,31.55
2017-07-09T10:00:13.421Z,31.61
2017-07-09T10:01:14.105Z,31.74
2017-07-09T10:02:14.136Z,31.66
2017-07-09T10:03:14.152Z,31.84
2017-07-09T10:04:14.314Z,31.96
2017-07-09T10:05:13.576Z,31.94
2017-07-09T10:06:14.316Z,32.03
2017-07-09T10:07:14.326Z,32.12
2017-07-09T10:08:14.325Z,32.16
2017-07-09T10:09:13.699Z,32.29
2017-07-09T10:10:14.051Z,32.31
2017-07-09T10:11:13.759Z,32.38
2017-07-09T10:12:14.227Z,32.43
2017-07-09T10:13:14.239Z,32.48
2017-07-09T10:14:14.177Z,32.48
2017-07-09T10:15:14.619Z,32.64
2017-07-09T10:16:14.326Z,32.67
2017-07-09T10:17:14.327Z,32.74
2017-07-09T10:18:14.780Z,32.71
2017-07-09T10:19:14.796Z,32.8
2017-07-09T10:20:14.470Z,32.8
2017-07-09T10:21:14.610Z,33.04
2017-07-09T10:22:14.605Z,33.14
2017-07-09T10:23:14.926Z,33.08
2017-07-09T10:24:14.923Z,33.24
2017-07-09T10:25:14.608Z,33.32
2017-07-09T10:26:14.636Z,33.36
2017-07-09T10:27:14.689Z,33.46
2017-07-09T10:28:14.935Z,33.49
2017-07-09T10:29:14.821Z,33.58
2017-07-09T10:30:14.670Z,33.64
2017-07-09T10:31:15.078Z,33.71
2017-07-09T10:32:15.049Z,33.71
2017-07-09T10:33:14.763Z,33.81
2017-07-09T10:34:14.798Z,33.87
2017-07-09T10:35:15.152Z,33.95
2017-07-09T10:36:15.180Z,34.05
2017-07-09T10:37:15.209Z,34.18
2017-07-09T10:38:15.237Z,34.13
2017-07-09T10:39:14.950Z,34.23
2017-07-09T10:40:14.989Z,34.29
2017-07-09T10:41:15.337Z,34.38
2017-07-09T10:42:15.370Z,34.39
2017-07-09T10:43:15.405Z,34.61
2017-07-09T10:44:14.796Z,34.58
2017-07-09T10:45:15.153Z,34.66
2017-07-09T10:46:15.177Z,34.7
2017-07-09T10:47:15.227Z,34.75
2017-07-09T10:48:14.920Z,34.92
2017-07-09T10:49:15.591Z,34.96
2017-07-09T10:50:15.625Z,35.07
2017-07-09T10:51:15.335Z,35.07
2017-07-09T10:52:15.362Z,35.22
2017-07-09T10:53:15.399Z,35.29
2017-07-09T10:54:15.429Z,35.3
2017-07-09T10:55:15.785Z,35.31
2017-07-09T10:56:15.494Z,35.44
2017-07-09T10:57:15.534Z,35.51
2017-07-09T10:58:15.881Z,35.52
2017-07-09T10:59:15.920Z,35.6
2017-07-09T11:00:15.625Z,35.68
2017-07-09T11:01:15.984Z,35.78
2017-07-09T11:02:15.371Z,35.82
2017-07-09T11:03:15.726Z,35.89
2017-07-09T11:04:16.091Z,35.83
2017-07-09T11:05:16.117Z,35.88
2017-07-09T11:06:15.501Z,35.98
2017-07-09T11:07:15.859Z,36
2017-07-09T11:08:15.891Z,36.02
2017-07-09T11:09:15.935Z,36.01
2017-07-09T11:10:15.964Z,36.04
2017-07-09T11:11:15.999Z,36.01
2017-07-09T11:12:16.342Z,36.02
2017-07-09T11:13:16.060Z,36
2017-07-09T11:14:16.416Z,35.98
2017-07-09T11:15:15.800Z,36.02
2017-07-09T11:16:16.159Z,36.04
2017-07-09T11:17:15.867Z,36.08
2017-07-09T11:18:16.349Z,36.07
2017-07-09T11:19:16.667Z,36.17
2017-07-09T11:20:16.692Z,36.17
2017-07-09T11:21:16.379Z,36.27
2017-07-09T11:22:16.356Z,36.24
2017-07-09T11:23:16.071Z,36.33
2017-07-09T11:24:16.508Z,36.36
2017-07-09T11:25:16.538Z,36.36
2017-07-09T11:26:16.613Z,36.47
2017-07-09T11:27:16.297Z,36.42
2017-07-09T11:28:16.684Z,36.51
2017-07-09T11:29:16.695Z,36.52
2017-07-09T11:30:16.835Z,36.55
2017-07-09T11:31:17.157Z,36.51
2017-07-09T11:32:17.155Z,36.54
2017-07-09T11:33:17.256Z,36.58
2017-07-09T11:34:17.297Z,36.62
2017-07-09T11:35:16.978Z,36.61
2017-07-09T11:36:17.302Z,36.65
2017-07-09T11:37:16.987Z,36.61
2017-07-09T11:38:16.660Z,36.7
2017-07-09T11:39:17.017Z,36.79
2017-07-09T11:40:17.500Z,36.79
2017-07-09T11:41:17.377Z,36.88
2017-07-09T11:42:17.488Z,36.86
2017-07-09T11:43:17.397Z,36.96
2017-07-09T11:44:16.784Z,36.99
2017-07-09T11:45:17.461Z,37.06
2017-07-09T11:46:17.497Z,37.1
2017-07-09T11:47:17.207Z,37.08
2017-07-09T11:48:17.568Z,37.21
2017-07-09T11:49:17.275Z,37.26
2017-07-09T11:50:17.643Z,37.35
2017-07-09T11:51:17.357Z,37.44
2017-07-09T11:52:17.390Z,37.47
2017-07-09T11:53:17.731Z,37.6
2017-07-09T11:54:17.778Z,37.56
2017-07-09T11:55:17.167Z,37.68
2017-07-09T11:56:17.853Z,37.7
2017-07-09T11:57:17.552Z,37.78
2017-07-09T11:58:17.922Z,37.83
2017-07-09T11:59:17.954Z,37.94
2017-07-09T12:00:17.996Z,38.08
2017-07-09T12:01:17.369Z,38.08
2017-07-09T12:02:18.051Z,38.17
2017-07-09T12:03:17.763Z,38.27
2017-07-09T12:04:17.798Z,38.33
2017-07-09T12:05:17.830Z,38.4
2017-07-09T12:06:18.194Z,38.42
2017-07-09T12:07:17.900Z,38.55
2017-07-09T12:08:17.614Z,38.62
2017-07-09T12:09:17.972Z,38.65
2017-07-09T12:10:18.334Z,38.65
2017-07-09T12:11:17.722Z,38.79
2017-07-09T12:12:18.076Z,38.83
2017-07-09T12:13:17.792Z,38.86
2017-07-09T12:14:18.152Z,39.06
2017-07-09T12:15:18.183Z,39.15
2017-07-09T12:16:18.220Z,39.21
2017-07-09T12:17:18.581Z,39.24
2017-07-09T12:18:18.625Z,39.24
2017-07-09T12:19:18.324Z,39.31
2017-07-09T12:20:18.688Z,39.4
2017-07-09T12:21:18.725Z,39.44
2017-07-09T12:22:18.752Z,39.48
2017-07-09T12:23:18.469Z,39.53
2017-07-09T12:24:18.510Z,39.6
2017-07-09T12:25:18.548Z,39.63
2017-07-09T12:26:18.592Z,39.63
2017-07-09T12:27:18.360Z,39.75
2017-07-09T12:28:18.650Z,39.8
2017-07-09T12:29:19.015Z,39.74
2017-07-09T12:30:18.725Z,39.83
2017-07-09T12:31:18.768Z,39.81
2017-07-09T12:32:19.116Z,39.87
2017-07-09T12:33:18.833Z,40.02
2017-07-09T12:34:19.203Z,40.14
2017-07-09T12:35:19.219Z,40.05
2017-07-09T12:36:19.265Z,40.23
2017-07-09T12:37:19.297Z,40.27
2017-07-09T12:38:19.016Z,40.23
2017-07-09T12:39:19.056Z,40.23
2017-07-09T12:40:18.762Z,40.3
2017-07-09T12:41:19.446Z,40.28
2017-07-09T12:42:19.162Z,40.27
2017-07-09T12:43:19.514Z,40.23
2017-07-09T12:44:19.553Z,40.24
2017-07-09T12:45:19.271Z,40.23
2017-07-09T12:46:18.982Z,40.21
2017-07-09T12:47:19.661Z,40.28
2017-07-09T12:48:19.380Z,40.3
2017-07-09T12:49:19.737Z,40.35
2017-07-09T12:50:19.127Z,40.33
2017-07-09T12:51:19.808Z,40.35
2017-07-09T12:52:19.844Z,40.47
2017-07-09T12:53:19.566Z,40.41
2017-07-09T12:54:19.960Z,40.51
2017-07-09T12:55:19.952Z,40.58
2017-07-09T12:56:19.667Z,40.59
2017-07-09T12:57:20.027Z,40.56